createdAt,value
2022-09-28T00:00:22.299Z,10.69
2022-09-28T00:03:25.566Z,10.76
2022-09-28T00:06:30.764Z,10.78
2022-09-28T00:09:33.707Z,10.90
2022-09-28T00:12:36.199Z,10.79
2022-09-28T00:15:39.101Z,10.96
2022-09-28T00:18:41.876Z,10.90
2022-09-28T00:21:44.700Z,10.95
2022-09-28T00:24:47.484Z,10.84
2022-09-28T00:27:51.176Z,10.76
2022-09-28T00:30:57.006Z,10.80
2022-09-28T00:34:02.844Z,10.72
2022-09-28T00:37:06.877Z,10.68
2022-09-28T00:40:10.156Z,10.76
2022-09-28T00:43:23.012Z,10.74
2022-09-28T00:46:34.919Z,10.65
2022-09-28T00:49:53.644Z,10.68
2022-09-28T00:53:06.602Z,10.72
2022-09-28T00:56:19.090Z,10.74
2022-09-28T00:59:24.801Z,10.74
2022-09-28T01:02:28.075Z,10.87
2022-09-28T01:05:31.707Z,10.71
2022-09-28T01:08:35.224Z,10.74
2022-09-28T01:11:39.358Z,10.85
2022-09-28T01:14:43.601Z,10.87
2022-09-28T01:18:41.945Z,10.98
2022-09-28T01:21:56.276Z,11.02
2022-09-28T01:25:12.910Z,11.00
2022-09-28T01:28:18.648Z,11.09
2022-09-28T01:31:30.368Z,11.13
2022-09-28T01:34:41.508Z,11.15
2022-09-28T01:38:17.424Z,11.11
2022-09-28T01:41:24.135Z,11.10
2022-09-28T01:44:31.185Z,11.14
2022-09-28T01:47:38.392Z,11.29
2022-09-28T01:50:43.818Z,11.19
2022-09-28T01:53:51.558Z,11.26
2022-09-28T01:57:10.747Z,11.27
2022-09-28T02:00:16.219Z,11.19
2022-09-28T02:03:35.105Z,11.29
2022-09-28T02:06:45.978Z,11.20
2022-09-28T02:09:56.080Z,11.22
2022-09-28T02:13:04.777Z,11.15
2022-09-28T02:16:21.571Z,11.23
2022-09-28T02:19:27.734Z,11.17
2022-09-28T02:22:40.408Z,11.31
2022-09-28T02:26:00.974Z,11.21
2022-09-28T02:29:04.327Z,11.44
2022-09-28T02:32:07.213Z,11.46
2022-09-28T02:35:12.869Z,11.39
2022-09-28T02:38:16.391Z,11.51
2022-09-28T02:41:26.908Z,11.40
2022-09-28T02:44:44.911Z,11.41
2022-09-28T02:48:04.342Z,11.38
2022-09-28T02:51:07.184Z,11.41
2022-09-28T02:54:32.187Z,11.41
2022-09-28T02:57:53.721Z,11.54
2022-09-28T03:01:05.245Z,11.52
2022-09-28T03:04:27.040Z,11.48
2022-09-28T03:07:35.548Z,11.38
2022-09-28T03:11:10.191Z,11.42
2022-09-28T03:14:14.636Z,11.42
2022-09-28T03:17:20.560Z,11.29
2022-09-28T03:20:23.872Z,11.21
2022-09-28T03:23:26.853Z,11.22
2022-09-28T03:26:29.405Z,11.20
2022-09-28T03:29:33.158Z,11.13
2022-09-28T03:32:36.217Z,11.04
2022-09-28T03:35:39.098Z,11.03
2022-09-28T03:38:41.645Z,11.06
2022-09-28T03:41:45.836Z,10.99
2022-09-28T03:44:48.843Z,10.99
2022-09-28T03:47:52.320Z,10.99
2022-09-28T03:50:58.776Z,10.91
2022-09-28T03:54:01.642Z,11.06
2022-09-28T03:57:05.171Z,11.02
2022-09-28T04:00:09.204Z,11.14
2022-09-28T04:03:16.183Z,11.03
2022-09-28T04:06:19.155Z,11.06
2022-09-28T04:09:21.839Z,10.96
2022-09-28T04:12:24.766Z,10.87
2022-09-28T04:15:27.539Z,10.94
2022-09-28T04:18:31.306Z,10.88
2022-09-28T04:21:37.373Z,10.73
2022-09-28T04:24:43.580Z,10.68
2022-09-28T04:28:04.696Z,10.73
2022-09-28T04:31:13.436Z,10.69
2022-09-28T04:34:20.454Z,10.63
2022-09-28T04:37:23.388Z,10.70
2022-09-28T04:40:26.413Z,10.73
2022-09-28T04:43:29.747Z,10.59
2022-09-28T04:46:35.537Z,10.74
2022-09-28T04:49:39.163Z,10.72
2022-09-28T04:52:41.820Z,10.76
2022-09-28T04:55:44.993Z,10.57
2022-09-28T04:58:52.486Z,10.69
2022-09-28T05:01:55.955Z,10.56
2022-09-28T05:04:59.540Z,10.60
2022-09-28T05:08:02.374Z,10.71
2022-09-28T05:11:07.522Z,10.62
2022-09-28T05:14:12.141Z,10.51
2022-09-28T05:17:16.489Z,10.65
2022-09-28T05:20:20.326Z,10.56
2022-09-28T05:23:22.804Z,10.65
2022-09-28T05:26:29.988Z,10.68
2022-09-28T05:29:32.859Z,10.61
2022-09-28T05:32:42.608Z,10.53
2022-09-28T05:35:49.814Z,10.48
2022-09-28T05:38:55.565Z,10.51
2022-09-28T05:41:58.370Z,11.24
2022-09-28T05:45:01.310Z,12.80
2022-09-28T05:48:04.624Z,13.74
2022-09-28T05:51:07.329Z,14.36
2022-09-28T05:54:10.576Z,14.54
2022-09-28T05:57:14.694Z,14.59
2022-09-28T06:00:21.138Z,15.07
2022-09-28T06:03:25.547Z,15.38
2022-09-28T06:06:29.470Z,15.62
2022-09-28T06:09:32.715Z,16.11
2022-09-28T06:12:35.540Z,16.65
2022-09-28T06:15:42.520Z,16.57
2022-09-28T06:18:46.298Z,16.81
2022-09-28T06:21:49.533Z,16.77
2022-09-28T06:24:54.582Z,16.65
2022-09-28T06:28:05.372Z,16.61
2022-09-28T06:31:08.661Z,17.13
2022-09-28T06:34:18.051Z,17.84
2022-09-28T06:37:20.926Z,17.31
2022-09-28T06:40:24.915Z,17.80
2022-09-28T06:43:32.169Z,17.90
2022-09-28T06:46:39.404Z,17.85
2022-09-28T06:49:46.141Z,17.59
2022-09-28T06:52:53.586Z,18.01
2022-09-28T06:55:58.654Z,18.06
2022-09-28T06:59:01.662Z,18.52
2022-09-28T07:02:05.062Z,18.24
2022-09-28T07:05:16.866Z,17.80
2022-09-28T07:08:27.777Z,18.40
2022-09-28T07:11:36.887Z,18.39
2022-09-28T07:14:47.789Z,18.73
2022-09-28T07:18:02.423Z,18.28
2022-09-28T07:21:13.083Z,18.69
2022-09-28T07:24:20.090Z,18.48
2022-09-28T07:27:28.930Z,18.79
2022-09-28T07:30:34.755Z,19.37
2022-09-28T07:33:38.172Z,19.39
2022-09-28T07:36:43.687Z,19.04
2022-09-28T07:40:05.424Z,19.39
2022-09-28T07:43:13.116Z,18.90
2022-09-28T07:46:16.851Z,19.53
2022-09-28T07:49:22.493Z,20.38
2022-09-28T07:52:26.427Z,19.88
2022-09-28T07:55:29.996Z,19.94
2022-09-28T07:58:35.461Z,19.83
2022-09-28T08:01:40.183Z,20.37
2022-09-28T08:04:43.859Z,20.18
2022-09-28T08:07:46.700Z,20.49
2022-09-28T08:10:52.510Z,20.50
2022-09-28T08:13:58.137Z,21.05
2022-09-28T08:17:02.120Z,21.20
2022-09-28T08:20:26.068Z,20.62
2022-09-28T08:23:30.119Z,21.22
2022-09-28T08:26:32.701Z,20.94
2022-09-28T08:29:36.779Z,20.20
2022-09-28T08:32:49.370Z,20.47
2022-09-28T08:35:58.613Z,21.17
2022-09-28T08:39:01.495Z,22.09
2022-09-28T08:42:11.031Z,21.54
2022-09-28T08:45:24.945Z,21.33
2022-09-28T08:48:57.090Z,21.04
2022-09-28T08:52:17.251Z,20.97
2022-09-28T08:55:31.201Z,21.00
2022-09-28T08:58:40.785Z,21.26
2022-09-28T09:02:00.590Z,21.96
2022-09-28T09:05:06.257Z,21.35
2022-09-28T09:08:50.607Z,21.62
2022-09-28T09:12:07.741Z,22.59
2022-09-28T09:15:30.175Z,21.31
2022-09-28T09:18:42.675Z,20.77
2022-09-28T09:22:11.588Z,21.93
2022-09-28T09:25:23.398Z,21.31
2022-09-28T09:28:36.225Z,20.72
2022-09-28T09:31:57.021Z,21.17
2022-09-28T09:35:25.907Z,21.45
2022-09-28T09:39:05.646Z,20.81
2022-09-28T09:42:38.595Z,20.29
2022-09-28T09:45:58.774Z,20.61
2022-09-28T09:49:14.827Z,21.05
2022-09-28T09:52:42.373Z,21.07
2022-09-28T09:55:54.834Z,20.94
2022-09-28T09:59:06.396Z,20.98
2022-09-28T10:02:26.161Z,20.40
2022-09-28T10:05:32.196Z,19.57
2022-09-28T10:08:40.709Z,20.80
2022-09-28T10:11:46.966Z,19.71
2022-09-28T10:14:50.637Z,19.20
2022-09-28T10:18:00.980Z,18.53
2022-09-28T10:21:15.445Z,17.86
2022-09-28T10:24:45.767Z,19.13
2022-09-28T10:27:52.495Z,19.51
2022-09-28T10:30:55.892Z,20.04
2022-09-28T10:33:58.564Z,20.98
2022-09-28T10:37:05.453Z,19.74
2022-09-28T10:40:30.791Z,19.30
2022-09-28T10:43:38.660Z,18.84
2022-09-28T10:46:41.955Z,18.47
2022-09-28T10:49:48.537Z,18.50
2022-09-28T10:52:51.441Z,18.46
2022-09-28T10:56:00.481Z,20.02
2022-09-28T10:59:35.946Z,18.77
2022-09-28T11:02:42.589Z,18.55
2022-09-28T11:06:05.238Z,19.49
2022-09-28T11:09:29.814Z,20.28
2022-09-28T11:12:44.132Z,21.06
2022-09-28T11:15:48.358Z,20.69
2022-09-28T11:18:56.871Z,18.99
2022-09-28T11:22:01.419Z,18.49
2022-09-28T11:25:17.153Z,19.54
2022-09-28T11:28:26.448Z,20.33
2022-09-28T11:31:31.427Z,20.62
2022-09-28T11:34:58.066Z,19.08
2022-09-28T11:38:27.958Z,19.55
2022-09-28T11:42:00.689Z,19.85
2022-09-28T11:45:12.766Z,19.78
2022-09-28T11:48:18.986Z,19.55
2022-09-28T11:51:28.190Z,18.86
2022-09-28T11:54:41.275Z,19.60
2022-09-28T11:57:48.918Z,18.96
2022-09-28T12:00:59.546Z,19.56
2022-09-28T12:04:16.336Z,19.03
2022-09-28T12:07:26.136Z,20.10
2022-09-28T12:10:39.404Z,18.93
2022-09-28T12:13:48.025Z,18.64
2022-09-28T12:17:19.857Z,18.77
2022-09-28T12:20:27.050Z,18.81
2022-09-28T12:23:35.863Z,18.47
2022-09-28T12:26:47.291Z,18.26
2022-09-28T12:30:06.125Z,18.12
2022-09-28T12:33:17.752Z,17.83
2022-09-28T12:36:47.526Z,17.60
2022-09-28T12:40:23.512Z,17.39
2022-09-28T12:43:46.533Z,17.71
2022-09-28T12:47:14.759Z,17.72
2022-09-28T12:50:39.062Z,17.59
2022-09-28T12:54:15.547Z,17.58
2022-09-28T12:57:52.451Z,17.31
2022-09-28T13:01:13.839Z,17.14
2022-09-28T13:04:58.049Z,17.22
2022-09-28T13:08:19.345Z,17.31
2022-09-28T13:11:34.927Z,17.17
2022-09-28T13:14:40.785Z,17.12
2022-09-28T13:17:55.556Z,17.18
2022-09-28T13:21:06.048Z,17.34
2022-09-28T13:24:31.681Z,17.43
2022-09-28T13:27:40.615Z,17.38
2022-09-28T13:30:45.268Z,17.34
2022-09-28T13:33:49.296Z,17.41
2022-09-28T13:37:20.138Z,17.54
2022-09-28T13:41:01.613Z,17.33
2022-09-28T13:44:13.553Z,17.40
2022-09-28T13:47:40.138Z,17.48
2022-09-28T13:51:03.671Z,17.56
2022-09-28T13:54:45.535Z,17.60
2022-09-28T13:58:16.232Z,17.55
2022-09-28T14:01:29.831Z,17.54
2022-09-28T14:04:54.509Z,17.50
2022-09-28T14:08:10.016Z,17.49
2022-09-28T14:11:27.077Z,17.51
2022-09-28T14:14:44.656Z,17.61
2022-09-28T14:17:57.792Z,17.61
2022-09-28T14:21:40.196Z,17.69
2022-09-28T14:25:13.684Z,17.41
2022-09-28T14:28:49.178Z,17.28
2022-09-28T14:31:51.947Z,17.32
2022-09-28T14:35:00.819Z,17.33
2022-09-28T14:38:32.264Z,17.36
2022-09-28T14:41:43.987Z,17.38
2022-09-28T14:45:06.102Z,17.26
2022-09-28T14:48:22.245Z,17.09
2022-09-28T14:51:26.218Z,17.18
2022-09-28T14:54:45.814Z,17.05
2022-09-28T14:57:55.185Z,17.07
2022-09-28T15:01:05.406Z,17.13
2022-09-28T15:04:12.520Z,17.03
2022-09-28T15:07:22.504Z,17.00
2022-09-28T15:10:31.855Z,17.05
2022-09-28T15:13:34.550Z,17.01
2022-09-28T15:16:37.475Z,16.92
2022-09-28T15:19:57.311Z,16.93
2022-09-28T15:23:00.443Z,16.89
2022-09-28T15:26:10.194Z,16.83
2022-09-28T15:29:19.482Z,16.75
2022-09-28T15:32:29.721Z,16.85
2022-09-28T15:35:32.626Z,16.78
2022-09-28T15:38:35.976Z,16.80
2022-09-28T15:41:38.939Z,16.64
2022-09-28T15:44:45.694Z,16.66
2022-09-28T15:47:50.572Z,16.59
2022-09-28T15:51:12.626Z,16.51
2022-09-28T15:54:23.919Z,16.57
2022-09-28T15:57:39.624Z,16.48
2022-09-28T16:00:42.924Z,16.50
2022-09-28T16:03:45.813Z,16.42
2022-09-28T16:07:19.224Z,16.41
2022-09-28T16:10:36.115Z,16.36
2022-09-28T16:14:17.128Z,16.35
2022-09-28T16:17:33.715Z,16.35
2022-09-28T16:20:39.213Z,16.29
2022-09-28T16:23:42.657Z,16.22
2022-09-28T16:26:45.333Z,16.16
2022-09-28T16:30:14.554Z,16.10
2022-09-28T16:33:49.059Z,16.07
2022-09-28T16:36:52.224Z,16.02
2022-09-28T16:39:55.639Z,16.03
2022-09-28T16:43:04.345Z,15.97
2022-09-28T16:46:10.498Z,15.98
2022-09-28T16:49:19.914Z,15.98
2022-09-28T16:52:42.756Z,15.99
2022-09-28T16:55:48.613Z,15.89
2022-09-28T16:58:51.175Z,15.89
2022-09-28T17:01:56.638Z,15.87
2022-09-28T17:05:07.226Z,15.83
2022-09-28T17:08:22.255Z,15.79
2022-09-28T17:11:25.400Z,15.82
2022-09-28T17:14:28.323Z,15.78
2022-09-28T17:17:31.447Z,15.78
2022-09-28T17:20:39.078Z,15.65
2022-09-28T17:23:44.931Z,15.68
2022-09-28T17:26:50.359Z,15.58
2022-09-28T17:29:52.987Z,15.36
2022-09-28T17:32:55.920Z,15.36
2022-09-28T17:36:04.822Z,15.26
2022-09-28T17:39:17.987Z,15.21
2022-09-28T17:42:22.609Z,15.46
2022-09-28T17:45:28.568Z,15.34
2022-09-28T17:48:34.270Z,15.21
2022-09-28T17:51:38.826Z,15.19
2022-09-28T17:54:42.978Z,15.20
2022-09-28T17:57:46.698Z,15.05
2022-09-28T18:00:51.863Z,14.88
2022-09-28T18:03:54.658Z,14.86
2022-09-28T18:06:57.479Z,14.74
2022-09-28T18:10:00.999Z,14.56
2022-09-28T18:13:03.578Z,14.35
2022-09-28T18:16:06.700Z,14.17
2022-09-28T18:19:10.391Z,14.21
2022-09-28T18:22:17.748Z,14.00
2022-09-28T18:25:21.907Z,14.00
2022-09-28T18:28:25.024Z,13.86
2022-09-28T18:31:28.491Z,13.75
2022-09-28T18:34:37.133Z,13.65
2022-09-28T18:37:43.202Z,13.59
2022-09-28T18:40:48.411Z,13.43
2022-09-28T18:44:00.498Z,13.47
2022-09-28T18:47:04.370Z,13.40
2022-09-28T18:50:08.158Z,13.25
2022-09-28T18:53:14.276Z,13.26
2022-09-28T18:56:18.934Z,13.15
2022-09-28T18:59:27.284Z,13.10
2022-09-28T19:02:30.176Z,13.15
2022-09-28T19:05:33.859Z,13.23
2022-09-28T19:08:38.466Z,13.06
2022-09-28T19:11:41.758Z,12.93
2022-09-28T19:14:44.394Z,12.88
2022-09-28T19:17:50.441Z,12.92
2022-09-28T19:20:53.086Z,12.84
2022-09-28T19:24:03.441Z,12.88
2022-09-28T19:27:08.773Z,12.77
2022-09-28T19:30:12.514Z,12.89
2022-09-28T19:33:17.482Z,12.78
2022-09-28T19:36:24.069Z,13.00
2022-09-28T19:39:26.767Z,12.86
2022-09-28T19:42:29.971Z,12.81
2022-09-28T19:45:36.763Z,12.68
2022-09-28T19:48:42.564Z,12.67
2022-09-28T19:52:11.421Z,12.65
2022-09-28T19:55:14.614Z,12.58
2022-09-28T19:58:24.095Z,12.58
2022-09-28T20:01:31.700Z,12.56
2022-09-28T20:04:35.090Z,12.58
2022-09-28T20:07:39.850Z,12.53
2022-09-28T20:10:52.417Z,12.50
2022-09-28T20:13:55.488Z,12.51
2022-09-28T20:16:58.387Z,12.51
2022-09-28T20:20:01.018Z,12.59
2022-09-28T20:23:04.645Z,12.47
2022-09-28T20:26:14.705Z,12.63
2022-09-28T20:29:17.840Z,12.64
2022-09-28T20:32:20.455Z,12.67
2022-09-28T20:35:32.758Z,12.70
2022-09-28T20:38:40.445Z,12.72
2022-09-28T20:41:43.445Z,12.65
2022-09-28T20:44:46.086Z,12.61
2022-09-28T20:47:48.961Z,12.60
2022-09-28T20:51:03.126Z,12.58
2022-09-28T20:54:07.527Z,12.61
2022-09-28T20:57:19.081Z,12.57
2022-09-28T21:00:23.004Z,12.50
2022-09-28T21:03:25.651Z,12.59
2022-09-28T21:06:34.177Z,12.70
2022-09-28T21:09:37.599Z,12.62
2022-09-28T21:12:40.719Z,12.70
2022-09-28T21:15:45.146Z,12.70
2022-09-28T21:18:48.590Z,12.72
2022-09-28T21:21:51.395Z,12.86
2022-09-28T21:24:54.439Z,12.87
2022-09-28T21:28:00.179Z,12.91
2022-09-28T21:31:06.419Z,12.94
2022-09-28T21:34:13.816Z,12.95
2022-09-28T21:37:16.740Z,13.01
2022-09-28T21:40:20.438Z,12.96
2022-09-28T21:43:24.686Z,12.99
2022-09-28T21:46:33.457Z,13.00
2022-09-28T21:49:39.342Z,12.99
2022-09-28T21:52:44.361Z,13.06
2022-09-28T21:55:52.587Z,12.99
2022-09-28T21:58:55.396Z,12.96
2022-09-28T22:01:58.371Z,12.98
2022-09-28T22:05:01.282Z,13.00
2022-09-28T22:08:03.860Z,13.04
2022-09-28T22:11:09.802Z,12.99
2022-09-28T22:14:12.450Z,13.07
2022-09-28T22:17:16.600Z,13.08
2022-09-28T22:20:19.343Z,13.09
2022-09-28T22:23:22.277Z,13.12
2022-09-28T22:26:26.231Z,13.06
2022-09-28T22:29:29.183Z,13.08
2022-09-28T22:32:33.088Z,13.05
2022-09-28T22:35:35.979Z,13.08
2022-09-28T22:38:39.228Z,13.05
2022-09-28T22:41:42.116Z,13.07
2022-09-28T22:44:44.752Z,12.98
2022-09-28T22:47:47.650Z,12.97
2022-09-28T22:50:51.565Z,12.98
2022-09-28T22:53:54.485Z,12.94
2022-09-28T22:56:57.155Z,12.95
2022-09-28T23:00:00.406Z,12.96
2022-09-28T23:03:04.796Z,12.96
2022-09-28T23:06:08.705Z,12.95
2022-09-28T23:09:11.460Z,12.97
2022-09-28T23:12:14.332Z,12.98
2022-09-28T23:15:17.858Z,13.03
2022-09-28T23:18:21.067Z,12.98
2022-09-28T23:21:27.133Z,13.00
2022-09-28T23:24:30.476Z,12.96
2022-09-28T23:27:33.161Z,13.01
2022-09-28T23:30:36.218Z,12.91
2022-09-28T23:33:38.797Z,12.89
2022-09-28T23:36:41.834Z,12.96
2022-09-28T23:39:44.656Z,12.93
2022-09-28T23:42:47.962Z,12.84
2022-09-28T23:45:50.521Z,12.83
2022-09-28T23:48:53.669Z,12.77
2022-09-28T23:51:56.264Z,12.74
2022-09-28T23:54:59.109Z,12.72
2022-09-28T23:58:01.748Z,12.77
